Time;durP1;ratioP1;P1;durP2;ratioP2;P2;SDS_P1;SDS_P2;PMS_P1;PMS_P2;Temp;Humidity;BMP_temperature;BMP_pressure;BME280_temperature;BME280_humidity;BME280_pressure;Samples;Min_cycle;Max_cycle;Signal;HPM_P1;HPM_P2
2021/09/18 00:00:27;;;;;;;4.80;4.40;;;14.70;99.90;;;;;;2089191;28;20094;-70
2021/09/18 00:01:27;;;;;;;5.90;4.90;;;14.70;99.90;;;;;;2088381;28;20021;-70
2021/09/18 00:02:28;;;;;;;7.18;5.60;;;14.70;99.90;;;;;;2087941;28;20027;-70
2021/09/18 00:03:30;;;;;;;5.60;4.90;;;14.70;99.90;;;;;;2088692;28;20080;-69
2021/09/18 00:04:30;;;;;;;7.68;5.40;;;14.70;99.90;;;;;;2088511;28;20037;-69
2021/09/18 00:05:31;;;;;;;6.20;5.60;;;14.70;99.90;;;;;;2088635;28;20049;-69
2021/09/18 00:06:32;;;;;;;6.63;5.80;;;14.70;99.90;;;;;;2088560;28;20429;-69
2021/09/18 00:07:33;;;;;;;6.97;5.75;;;14.70;99.90;;;;;;2088577;28;20025;-70
2021/09/18 00:08:34;;;;;;;8.48;5.70;;;14.70;99.90;;;;;;2089012;28;20032;-69
2021/09/18 00:09:34;;;;;;;6.93;5.40;;;14.70;99.90;;;;;;2088451;28;20032;-70
2021/09/18 00:10:35;;;;;;;6.65;5.55;;;14.60;99.90;;;;;;2089316;28;20078;-69
2021/09/18 00:11:35;;;;;;;9.55;5.72;;;14.60;99.90;;;;;;2089317;28;20397;-71
2021/09/18 00:12:36;;;;;;;7.57;5.80;;;14.60;99.90;;;;;;2089247;28;20029;-70
2021/09/18 00:13:37;;;;;;;8.65;6.30;;;14.70;99.90;;;;;;2089138;28;20031;-69
2021/09/18 00:14:39;;;;;;;7.15;5.45;;;14.60;99.90;;;;;;2089346;28;20036;-69
2021/09/18 00:15:40;;;;;;;6.63;5.60;;;14.60;99.90;;;;;;2089568;28;20146;-70
2021/09/18 00:16:40;;;;;;;7.78;5.40;;;14.60;99.90;;;;;;2088973;28;20083;-69
2021/09/18 00:17:41;;;;;;;5.75;4.97;;;14.60;99.90;;;;;;2089210;28;20036;-69
2021/09/18 00:18:42;;;;;;;5.32;4.68;;;14.60;99.90;;;;;;2089143;28;20032;-69
2021/09/18 00:19:43;;;;;;;7.50;5.90;;;14.60;99.90;;;;;;2088522;28;20028;-69
2021/09/18 00:20:44;;;;;;;6.85;5.20;;;14.60;99.90;;;;;;2089033;28;20558;-69
2021/09/18 00:21:44;;;;;;;5.07;4.55;;;14.60;99.90;;;;;;2088994;28;20486;-69
2021/09/18 00:22:45;;;;;;;6.97;5.43;;;14.60;99.90;;;;;;2088994;28;20517;-69
2021/09/18 00:23:46;;;;;;;5.38;4.88;;;14.60;99.90;;;;;;2089068;28;20036;-70
2021/09/18 00:24:46;;;;;;;5.88;5.00;;;14.60;99.90;;;;;;2088335;28;20029;-69
2021/09/18 00:25:47;;;;;;;5.43;4.93;;;14.60;99.90;;;;;;2088400;28;20032;-69
2021/09/18 00:26:48;;;;;;;5.40;4.90;;;14.60;99.90;;;;;;2089031;28;20052;-69
2021/09/18 00:27:48;;;;;;;5.65;5.10;;;14.60;99.90;;;;;;2088991;28;20082;-69
2021/09/18 00:28:49;;;;;;;5.28;4.78;;;14.60;99.90;;;;;;2088811;28;20048;-69
2021/09/18 00:29:49;;;;;;;5.78;4.70;;;14.60;99.90;;;;;;2088381;28;20036;-69
2021/09/18 00:30:50;;;;;;;5.03;4.40;;;14.60;99.90;;;;;;2089036;28;20029;-70
2021/09/18 00:31:51;;;;;;;4.97;4.47;;;14.60;99.90;;;;;;2089017;28;20069;-69
2021/09/18 00:32:51;;;;;;;5.68;4.30;;;14.60;99.90;;;;;;2089020;28;20035;-69
2021/09/18 00:33:52;;;;;;;5.03;4.40;;;14.60;99.90;;;;;;2088964;28;20442;-69
2021/09/18 00:34:53;;;;;;;4.90;4.40;;;14.60;99.90;;;;;;2088845;28;20452;-69
2021/09/18 00:35:53;;;;;;;5.28;4.43;;;14.60;99.90;;;;;;2088963;28;20021;-69
2021/09/18 00:36:54;;;;;;;5.10;4.60;;;14.60;99.90;;;;;;2088882;28;20052;-69
2021/09/18 00:37:54;;;;;;;5.15;4.65;;;14.60;99.90;;;;;;2088994;28;20028;-69
2021/09/18 00:38:56;;;;;;;7.82;5.25;;;14.60;99.90;;;;;;2088372;28;20033;-69
2021/09/18 00:39:57;;;;;;;5.30;4.32;;;14.60;99.90;;;;;;2087600;28;20040;-69
2021/09/18 00:40:57;;;;;;;5.57;4.55;;;14.60;99.90;;;;;;2089065;28;20132;-69
2021/09/18 00:41:58;;;;;;;7.03;4.38;;;14.60;99.90;;;;;;2089338;28;20021;-69
2021/09/18 00:42:59;;;;;;;4.80;4.00;;;14.60;99.90;;;;;;2091269;28;20487;-69
2021/09/18 00:44:00;;;;;;;4.35;3.95;;;14.60;99.90;;;;;;2091414;28;20032;-70
2021/09/18 00:45:00;;;;;;;5.40;3.80;;;14.60;99.90;;;;;;2094802;28;20032;-72
2021/09/18 00:46:01;;;;;;;5.47;4.70;;;14.60;99.90;;;;;;2097166;28;20043;-69
2021/09/18 00:47:02;;;;;;;5.65;4.22;;;14.60;99.90;;;;;;2097450;28;20040;-70
2021/09/18 00:48:03;;;;;;;4.47;4.07;;;14.60;99.90;;;;;;2097158;28;20035;-69
2021/09/18 00:49:04;;;;;;;4.60;3.53;;;14.60;99.90;;;;;;2096490;28;20064;-69
2021/09/18 00:50:06;;;;;;;5.63;3.72;;;14.60;99.90;;;;;;2087470;28;20067;-70
2021/09/18 00:51:07;;;;;;;4.45;4.00;;;14.60;99.90;;;;;;2096406;28;20101;-69
2021/09/18 00:52:07;;;;;;;4.18;3.78;;;14.60;99.90;;;;;;2097009;28;20024;-69
2021/09/18 00:53:09;;;;;;;4.82;3.92;;;14.60;99.90;;;;;;2097098;28;20082;-69
2021/09/18 00:54:13;;;;;;;4.88;4.18;;;14.60;99.90;;;;;;2096478;28;20024;-69
2021/09/18 00:55:14;;;;;;;5.72;3.95;;;14.60;99.90;;;;;;2096471;28;20757;-69
2021/09/18 00:56:17;;;;;;;7.05;4.45;;;14.60;99.90;;;;;;2096979;28;20086;-69
2021/09/18 00:57:18;;;;;;;6.03;4.40;;;14.50;99.90;;;;;;2097168;28;20725;-69
2021/09/18 00:58:19;;;;;;;4.38;3.90;;;14.50;99.90;;;;;;2104623;28;20427;-69
2021/09/18 00:59:22;;;;;;;5.15;3.80;;;14.50;99.90;;;;;;2104578;28;20024;-70
2021/09/18 01:00:22;;;;;;;4.40;4.00;;;14.50;99.90;;;;;;2096591;28;20036;-69
2021/09/18 01:01:23;;;;;;;5.95;4.05;;;14.50;99.90;;;;;;2097186;28;20158;-69
2021/09/18 01:02:23;;;;;;;5.40;3.97;;;14.50;99.90;;;;;;2097011;28;20033;-69
2021/09/18 01:03:24;;;;;;;4.72;3.70;;;14.50;99.90;;;;;;2104718;28;20533;-69
2021/09/18 01:04:25;;;;;;;5.35;3.60;;;14.50;99.90;;;;;;2104834;28;20024;-70
2021/09/18 01:05:26;;;;;;;4.25;3.58;;;14.50;99.90;;;;;;2097148;28;20032;-69
2021/09/18 01:06:28;;;;;;;5.45;4.20;;;14.50;99.90;;;;;;2096543;28;20158;-70
2021/09/18 01:07:28;;;;;;;4.45;3.92;;;14.50;99.90;;;;;;2096526;28;20073;-69
2021/09/18 01:08:31;;;;;;;4.75;3.83;;;14.50;99.90;;;;;;2096751;28;20058;-70
2021/09/18 01:09:33;;;;;;;6.45;3.75;;;14.50;99.90;;;;;;2096539;28;20025;-70
2021/09/18 01:10:33;;;;;;;5.93;4.30;;;14.50;99.90;;;;;;2096823;28;20035;-69
2021/09/18 01:11:34;;;;;;;4.20;3.80;;;14.50;99.90;;;;;;2096557;28;20020;-69
2021/09/18 01:12:54;;;;;;;4.00;3.60;;;14.50;99.90;;;;;;2097073;28;20558;-70
2021/09/18 01:13:56;;;;;;;7.43;4.50;;;14.50;99.90;;;;;;2087142;28;20114;-70
2021/09/18 01:14:56;;;;;;;6.07;4.20;;;14.50;99.90;;;;;;2086904;28;20040;-69
2021/09/18 01:15:57;;;;;;;4.07;3.67;;;14.50;99.90;;;;;;2095637;28;20052;-69
2021/09/18 01:16:58;;;;;;;4.25;3.85;;;14.50;99.90;;;;;;2096406;28;20085;-69
2021/09/18 01:17:59;;;;;;;4.45;3.35;;;14.50;99.90;;;;;;2096796;28;20024;-70
2021/09/18 01:18:59;;;;;;;3.85;3.20;;;14.50;99.90;;;;;;2096923;28;20087;-69
2021/09/18 01:20:00;;;;;;;4.00;3.40;;;14.50;99.90;;;;;;2096257;28;20078;-70
2021/09/18 01:21:00;;;;;;;5.32;4.75;;;14.50;99.90;;;;;;2096458;28;20025;-69
2021/09/18 01:22:03;;;;;;;5.38;4.35;;;14.50;99.90;;;;;;2096480;28;20037;-70
2021/09/18 01:23:06;;;;;;;5.90;4.63;;;14.50;99.90;;;;;;2096585;28;20066;-69
2021/09/18 01:24:07;;;;;;;7.00;4.47;;;14.50;99.90;;;;;;2096334;28;20465;-69
2021/09/18 01:25:09;;;;;;;4.82;4.25;;;14.50;99.90;;;;;;2096270;28;20031;-69
2021/09/18 01:26:09;;;;;;;6.18;4.22;;;14.50;99.90;;;;;;2096325;28;20374;-69
2021/09/18 01:27:10;;;;;;;7.13;5.35;;;14.60;99.90;;;;;;2096942;28;20040;-69
2021/09/18 01:28:11;;;;;;;5.75;4.90;;;14.50;99.90;;;;;;2096903;28;20460;-70
2021/09/18 01:29:12;;;;;;;5.10;4.60;;;14.50;99.90;;;;;;2096191;28;20074;-69
2021/09/18 01:30:24;;;;;;;6.35;5.20;;;14.50;99.90;;;;;;2087335;28;20035;-68
2021/09/18 01:31:25;;;;;;;5.35;4.80;;;14.50;99.90;;;;;;2097744;28;20025;-68
2021/09/18 01:32:25;;;;;;;6.72;5.32;;;14.50;99.90;;;;;;2104562;28;20574;-69
2021/09/18 01:33:26;;;;;;;7.18;5.32;;;14.40;99.90;;;;;;2096766;28;20024;-69
2021/09/18 01:34:26;;;;;;;9.85;5.43;;;14.40;99.90;;;;;;2096122;28;20045;-69
2021/09/18 01:35:27;;;;;;;6.00;5.20;;;14.40;99.90;;;;;;2096215;28;20092;-69
2021/09/18 01:36:28;;;;;;;7.00;5.45;;;14.40;99.90;;;;;;2096317;28;20029;-69
2021/09/18 01:37:29;;;;;;;6.50;5.57;;;14.40;99.90;;;;;;2088031;28;20021;-68
2021/09/18 01:38:29;;;;;;;6.50;5.25;;;14.40;99.90;;;;;;2087936;28;20029;-69
2021/09/18 01:39:31;;;;;;;6.95;4.93;;;14.40;99.90;;;;;;2095751;28;20079;-69
2021/09/18 01:40:40;;;;;;;5.35;4.80;;;14.40;99.90;;;;;;2096818;28;20500;-69
2021/09/18 01:41:46;;;;;;;5.10;4.60;;;14.40;99.90;;;;;;2096313;28;20044;-69
2021/09/18 01:42:48;;;;;;;5.65;4.28;;;14.40;99.90;;;;;;2096200;28;20036;-68
2021/09/18 01:43:48;;;;;;;6.00;4.75;;;14.40;99.90;;;;;;2096492;28;20098;-69
2021/09/18 01:44:49;;;;;;;7.32;5.30;;;14.50;99.90;;;;;;2096228;28;20029;-69
2021/09/18 01:45:49;;;;;;;5.20;4.72;;;14.50;99.90;;;;;;2096238;28;20433;-68
2021/09/18 01:46:50;;;;;;;9.48;5.03;;;14.50;99.90;;;;;;2096297;28;20104;-69
2021/09/18 01:47:54;;;;;;;5.68;4.82;;;14.50;99.90;;;;;;2104571;28;20032;-69
2021/09/18 01:48:54;;;;;;;5.47;4.70;;;14.40;99.90;;;;;;2104520;28;20360;-69
2021/09/18 01:49:55;;;;;;;5.55;4.22;;;14.40;99.90;;;;;;2096337;28;20139;-68
2021/09/18 01:50:59;;;;;;;5.70;4.28;;;14.40;99.90;;;;;;2096948;28;20028;-69
2021/09/18 01:52:08;;;;;;;5.03;4.15;;;14.40;99.90;;;;;;2096461;28;20345;-69
2021/09/18 01:53:09;;;;;;;5.65;4.30;;;14.40;99.90;;;;;;2098160;28;20047;-69
2021/09/18 01:54:10;;;;;;;4.30;3.90;;;14.40;99.90;;;;;;2105295;28;20032;-69
2021/09/18 01:55:11;;;;;;;4.30;3.90;;;14.40;99.90;;;;;;2097105;28;20078;-69
2021/09/18 01:56:12;;;;;;;5.75;4.32;;;14.40;99.90;;;;;;2096737;28;20542;-68
2021/09/18 01:57:12;;;;;;;4.95;4.15;;;14.40;99.90;;;;;;2097159;28;20054;-69
2021/09/18 01:58:13;;;;;;;5.70;4.40;;;14.40;99.90;;;;;;2097050;28;20390;-69
2021/09/18 01:59:14;;;;;;;4.88;4.40;;;14.40;99.90;;;;;;2096970;28;20730;-69
2021/09/18 02:00:16;;;;;;;5.43;4.55;;;14.40;99.90;;;;;;2103899;28;20028;-68
2021/09/18 02:01:17;;;;;;;4.32;3.92;;;14.40;99.90;;;;;;2104247;28;20021;-70
2021/09/18 02:02:17;;;;;;;6.32;4.10;;;14.40;99.90;;;;;;2096804;28;20071;-70
2021/09/18 02:03:19;;;;;;;4.10;3.70;;;14.40;99.90;;;;;;2096943;28;20032;-70
2021/09/18 02:04:19;;;;;;;6.68;4.30;;;14.40;99.90;;;;;;2096902;28;20139;-70
2021/09/18 02:05:26;;;;;;;5.32;4.03;;;14.40;99.90;;;;;;2096778;28;20058;-70
2021/09/18 02:06:27;;;;;;;4.57;4.18;;;14.40;99.90;;;;;;2096813;28;20462;-70
2021/09/18 02:07:27;;;;;;;6.85;4.15;;;14.40;99.90;;;;;;2096752;28;20099;-68
2021/09/18 02:08:28;;;;;;;6.85;4.40;;;14.40;99.90;;;;;;2096899;28;20025;-68
2021/09/18 02:09:29;;;;;;;5.90;4.07;;;14.40;99.90;;;;;;2096618;28;20016;-68
2021/09/18 02:10:31;;;;;;;4.22;3.85;;;14.40;99.90;;;;;;2096287;28;20037;-70
2021/09/18 02:11:31;;;;;;;5.20;3.70;;;14.40;99.90;;;;;;2096794;28;20032;-69
2021/09/18 02:12:32;;;;;;;4.28;3.60;;;14.40;99.90;;;;;;2096088;28;20112;-69
2021/09/18 02:13:33;;;;;;;3.47;3.17;;;14.40;99.90;;;;;;2087796;28;20555;-70
2021/09/18 02:14:35;;;;;;;5.00;4.32;;;14.40;99.90;;;;;;2096093;28;20090;-69
2021/09/18 02:15:35;;;;;;;4.05;3.70;;;14.40;99.90;;;;;;2095942;28;20024;-69
2021/09/18 02:16:36;;;;;;;4.85;3.83;;;14.40;99.90;;;;;;2095963;28;20028;-69
2021/09/18 02:17:37;;;;;;;4.65;3.70;;;14.40;99.90;;;;;;2096856;28;20020;-69
2021/09/18 02:18:38;;;;;;;4.00;3.60;;;14.40;99.90;;;;;;2096396;28;20385;-69
2021/09/18 02:19:38;;;;;;;4.30;3.90;;;14.40;99.90;;;;;;2096050;28;20489;-69
2021/09/18 02:20:40;;;;;;;5.22;3.90;;;14.40;99.90;;;;;;2096642;28;20028;-68
2021/09/18 02:21:41;;;;;;;4.32;3.60;;;14.40;99.90;;;;;;2096561;28;20060;-70
2021/09/18 02:22:42;;;;;;;4.10;3.42;;;14.40;99.90;;;;;;2096568;28;20021;-70
2021/09/18 02:23:43;;;;;;;4.40;3.40;;;14.40;99.90;;;;;;2096816;28;20020;-69
2021/09/18 02:24:44;;;;;;;4.60;4.03;;;14.40;99.90;;;;;;2096028;28;20054;-69
2021/09/18 02:25:44;;;;;;;4.18;3.70;;;14.40;99.90;;;;;;2096547;28;20036;-70
2021/09/18 02:26:45;;;;;;;4.82;3.70;;;14.40;99.90;;;;;;2098121;28;20044;-70
2021/09/18 02:27:47;;;;;;;3.95;3.63;;;14.40;99.90;;;;;;2098157;28;20116;-69
2021/09/18 02:28:47;;;;;;;3.88;3.20;;;14.40;99.90;;;;;;2098088;28;20082;-70
2021/09/18 02:29:48;;;;;;;3.88;3.47;;;14.40;99.90;;;;;;2096689;28;20098;-70
2021/09/18 02:30:49;;;;;;;4.15;3.75;;;14.40;99.90;;;;;;2097385;28;20037;-70
2021/09/18 02:31:49;;;;;;;4.32;3.47;;;14.40;99.90;;;;;;2097246;28;20024;-69
2021/09/18 02:32:50;;;;;;;3.22;2.88;;;14.40;99.90;;;;;;2097462;28;20485;-70
2021/09/18 02:33:51;;;;;;;3.45;3.08;;;14.40;99.90;;;;;;2098543;28;20028;-70
2021/09/18 02:34:52;;;;;;;3.55;3.25;;;14.40;99.90;;;;;;2098475;28;20115;-70
2021/09/18 02:35:53;;;;;;;4.25;3.78;;;14.40;99.90;;;;;;2098036;28;20036;-70
2021/09/18 02:36:53;;;;;;;3.95;3.55;;;14.40;99.90;;;;;;2098010;28;20020;-70
2021/09/18 02:37:55;;;;;;;3.65;3.20;;;14.40;99.90;;;;;;2098021;28;20531;-70
2021/09/18 02:38:56;;;;;;;4.50;3.30;;;14.40;99.90;;;;;;2098616;28;20036;-70
2021/09/18 02:39:57;;;;;;;3.70;3.40;;;14.40;99.90;;;;;;2098199;28;20020;-70
2021/09/18 02:40:57;;;;;;;4.20;3.17;;;14.40;99.90;;;;;;2098594;28;20021;-68
2021/09/18 02:41:58;;;;;;;3.78;3.47;;;14.30;99.90;;;;;;2098592;28;20028;-68
2021/09/18 02:43:00;;;;;;;4.70;3.72;;;14.40;99.90;;;;;;2097549;28;20052;-70
2021/09/18 02:44:01;;;;;;;3.80;3.40;;;14.40;99.90;;;;;;2097903;28;20017;-69
2021/09/18 02:45:02;;;;;;;3.50;3.20;;;14.40;99.90;;;;;;2098618;28;20060;-70
2021/09/18 02:46:03;;;;;;;4.45;3.40;;;14.40;99.90;;;;;;2098656;28;20046;-70
2021/09/18 02:47:03;;;;;;;5.20;3.60;;;14.40;99.90;;;;;;2098602;28;20029;-69
2021/09/18 02:48:04;;;;;;;3.80;3.40;;;14.40;99.90;;;;;;2098470;28;20719;-70
2021/09/18 02:49:05;;;;;;;3.25;2.95;;;14.40;99.90;;;;;;2106287;28;20032;-69
2021/09/18 02:50:07;;;;;;;3.83;3.10;;;14.40;99.90;;;;;;2105992;28;20032;-70
2021/09/18 02:51:08;;;;;;;5.07;3.90;;;14.40;99.90;;;;;;2098664;28;20050;-70
2021/09/18 02:52:09;;;;;;;7.25;5.03;;;14.30;99.90;;;;;;2098412;28;20036;-69
2021/09/18 02:53:09;;;;;;;5.65;4.00;;;14.30;99.90;;;;;;2098497;28;20041;-69
2021/09/18 02:54:10;;;;;;;4.47;3.83;;;14.30;99.90;;;;;;2098249;28;20032;-70
2021/09/18 02:55:11;;;;;;;4.28;3.60;;;14.30;99.90;;;;;;2098447;28;20536;-69
2021/09/18 02:56:12;;;;;;;4.07;3.30;;;14.30;99.90;;;;;;2098398;28;20039;-69
2021/09/18 02:57:12;;;;;;;3.67;3.20;;;14.30;99.90;;;;;;2098515;28;20444;-70
2021/09/18 02:58:13;;;;;;;6.05;3.25;;;14.30;99.90;;;;;;2098473;28;20447;-69
2021/09/18 02:59:14;;;;;;;6.47;3.20;;;14.30;99.90;;;;;;2098446;28;20031;-69
2021/09/18 03:00:15;;;;;;;5.32;3.80;;;14.30;99.90;;;;;;2097912;28;20157;-70
2021/09/18 03:01:16;;;;;;;4.00;3.60;;;14.30;99.90;;;;;;2098420;28;20024;-69
2021/09/18 03:02:16;;;;;;;3.78;3.40;;;14.30;99.90;;;;;;2098533;28;20489;-69
2021/09/18 03:03:17;;;;;;;4.22;3.40;;;14.30;99.90;;;;;;2097904;28;20501;-70
2021/09/18 03:04:18;;;;;;;3.80;3.40;;;14.30;99.90;;;;;;2089662;28;20663;-69
2021/09/18 03:05:18;;;;;;;3.50;3.15;;;14.30;99.90;;;;;;2097968;28;20024;-70
2021/09/18 03:06:19;;;;;;;6.25;3.17;;;14.30;99.90;;;;;;2098689;28;20520;-70
2021/09/18 03:07:19;;;;;;;3.45;3.15;;;14.30;99.90;;;;;;2098425;28;20495;-69
2021/09/18 03:08:20;;;;;;;4.13;3.70;;;14.30;99.90;;;;;;2098676;28;20020;-69
2021/09/18 03:09:21;;;;;;;3.92;3.50;;;14.30;99.90;;;;;;2098637;28;20029;-69
2021/09/18 03:10:21;;;;;;;4.65;3.25;;;14.30;99.90;;;;;;2098210;28;20024;-70
2021/09/18 03:11:22;;;;;;;4.28;3.30;;;14.30;99.90;;;;;;2098531;28;20500;-69
2021/09/18 03:12:23;;;;;;;3.70;3.15;;;14.30;99.90;;;;;;2098333;28;20032;-70
2021/09/18 03:13:24;;;;;;;3.58;3.05;;;14.30;99.90;;;;;;2097867;28;20051;-70
2021/09/18 03:14:24;;;;;;;3.45;2.90;;;14.30;99.90;;;;;;2097534;28;20371;-70
2021/09/18 03:15:25;;;;;;;4.97;3.40;;;14.30;99.90;;;;;;2097989;28;20095;-69
2021/09/18 03:16:26;;;;;;;4.75;3.25;;;14.30;99.90;;;;;;2089291;28;20028;-70
2021/09/18 03:17:27;;;;;;;5.85;3.25;;;14.30;99.90;;;;;;2089630;28;20019;-70
2021/09/18 03:18:27;;;;;;;4.90;2.97;;;14.30;99.90;;;;;;2098019;28;20020;-69
2021/09/18 03:19:28;;;;;;;4.65;2.80;;;14.20;99.90;;;;;;2098344;28;20024;-70
2021/09/18 03:20:28;;;;;;;2.80;2.60;;;14.20;99.90;;;;;;2098151;28;20021;-70
2021/09/18 03:21:29;;;;;;;2.85;2.60;;;14.20;99.90;;;;;;2098203;28;20134;-69
2021/09/18 03:22:30;;;;;;;4.18;2.60;;;14.20;99.90;;;;;;2098559;28;20465;-69
2021/09/18 03:23:30;;;;;;;2.80;2.60;;;14.20;99.90;;;;;;2098482;28;20020;-69
2021/09/18 03:24:31;;;;;;;3.17;2.58;;;14.20;99.90;;;;;;2098445;28;20119;-69
2021/09/18 03:25:32;;;;;;;5.57;2.75;;;14.20;99.90;;;;;;2098354;28;20446;-69
2021/09/18 03:26:32;;;;;;;2.85;2.47;;;14.20;99.90;;;;;;2098499;28;20029;-69
2021/09/18 03:27:33;;;;;;;3.60;2.60;;;14.20;99.90;;;;;;2097670;28;20031;-71
2021/09/18 03:28:34;;;;;;;2.55;2.30;;;14.20;99.90;;;;;;2097726;28;20466;-69
2021/09/18 03:29:34;;;;;;;6.40;2.60;;;14.20;99.90;;;;;;2098139;28;20021;-71
2021/09/18 03:30:35;;;;;;;2.85;2.55;;;14.20;99.90;;;;;;2098070;28;20366;-69
2021/09/18 03:31:37;;;;;;;3.20;2.30;;;14.20;99.90;;;;;;2098202;28;20033;-69
2021/09/18 03:32:37;;;;;;;3.15;2.20;;;14.20;99.90;;;;;;2098218;28;20096;-69
2021/09/18 03:33:39;;;;;;;3.28;2.22;;;14.20;99.90;;;;;;2097311;28;20036;-69
2021/09/18 03:34:39;;;;;;;3.08;2.42;;;14.20;99.90;;;;;;2097057;28;20110;-69
2021/09/18 03:35:42;;;;;;;3.05;2.13;;;14.10;99.90;;;;;;2097642;28;20119;-69
2021/09/18 03:36:42;;;;;;;3.38;2.00;;;14.20;99.90;;;;;;2097063;28;20025;-69
2021/09/18 03:37:43;;;;;;;2.72;2.10;;;14.10;99.90;;;;;;2096301;28;20482;-69
2021/09/18 03:38:44;;;;;;;3.03;2.08;;;14.10;99.90;;;;;;2097746;28;20024;-69
2021/09/18 03:39:44;;;;;;;3.65;1.80;;;14.10;99.90;;;;;;2096855;28;20489;-69
2021/09/18 03:40:45;;;;;;;2.50;1.95;;;14.10;99.90;;;;;;2097806;28;20060;-69
2021/09/18 03:41:45;;;;;;;2.20;2.00;;;14.20;99.90;;;;;;2097818;28;20017;-69
2021/09/18 03:42:47;;;;;;;3.08;1.80;;;14.10;99.90;;;;;;2097791;28;20617;-69
2021/09/18 03:43:47;;;;;;;3.65;2.08;;;14.10;99.90;;;;;;2097618;28;20067;-69
2021/09/18 03:44:48;;;;;;;3.90;2.00;;;14.10;99.90;;;;;;2097718;28;20418;-69
2021/09/18 03:45:51;;;;;;;2.85;1.70;;;14.10;99.90;;;;;;2097636;28;20051;-69
2021/09/18 03:46:51;;;;;;;2.05;1.70;;;14.10;99.90;;;;;;2097713;28;20075;-70
2021/09/18 03:47:52;;;;;;;1.88;1.45;;;14.10;99.90;;;;;;2097378;28;20033;-70
2021/09/18 03:48:53;;;;;;;2.50;1.60;;;14.10;99.90;;;;;;2097530;28;20111;-71
2021/09/18 03:49:56;;;;;;;2.28;1.60;;;14.10;99.90;;;;;;2097808;28;20056;-69
2021/09/18 03:50:57;;;;;;;1.70;1.60;;;14.10;99.90;;;;;;2097120;28;20060;-69
2021/09/18 03:51:57;;;;;;;2.40;1.60;;;14.10;99.90;;;;;;2097255;28;20036;-70
2021/09/18 03:52:58;;;;;;;1.48;1.38;;;14.00;99.90;;;;;;2097823;28;20036;-69
2021/09/18 03:53:59;;;;;;;2.83;1.35;;;14.00;99.90;;;;;;2097817;28;20269;-70
2021/09/18 03:54:59;;;;;;;2.35;1.60;;;14.00;99.90;;;;;;2096923;28;20037;-69
2021/09/18 03:56:01;;;;;;;4.00;1.70;;;14.00;99.90;;;;;;2097020;28;20559;-69
2021/09/18 03:57:02;;;;;;;2.55;1.60;;;14.00;99.90;;;;;;2097683;28;20016;-69
2021/09/18 03:58:02;;;;;;;3.53;1.63;;;14.00;99.90;;;;;;2097570;28;20028;-69
2021/09/18 03:59:03;;;;;;;1.80;1.58;;;14.00;99.90;;;;;;2097600;28;20040;-69
2021/09/18 04:00:06;;;;;;;2.10;1.50;;;14.00;99.90;;;;;;2096609;28;20024;-69
2021/09/18 04:01:06;;;;;;;3.30;1.50;;;14.00;99.90;;;;;;2097470;28;20028;-68
2021/09/18 04:02:07;;;;;;;3.38;1.80;;;14.00;99.90;;;;;;2097457;28;20021;-68
2021/09/18 04:03:07;;;;;;;1.90;1.50;;;14.00;99.90;;;;;;2097482;28;20478;-68
2021/09/18 04:04:08;;;;;;;2.13;1.60;;;14.00;99.90;;;;;;2096819;28;20479;-68
2021/09/18 04:05:09;;;;;;;2.80;1.50;;;14.00;99.90;;;;;;2097092;28;20060;-69
2021/09/18 04:06:09;;;;;;;4.18;1.60;;;14.00;99.90;;;;;;2097637;28;20020;-69
2021/09/18 04:07:10;;;;;;;2.25;1.70;;;14.00;99.90;;;;;;2097817;28;20780;-68
2021/09/18 04:08:11;;;;;;;2.35;1.50;;;14.00;99.90;;;;;;2097865;28;20033;-68
2021/09/18 04:09:12;;;;;;;1.95;1.67;;;14.00;99.90;;;;;;2097792;28;20028;-68
2021/09/18 04:10:13;;;;;;;2.92;1.60;;;14.00;99.90;;;;;;2096477;28;20028;-68
2021/09/18 04:11:14;;;;;;;1.90;1.50;;;14.00;99.90;;;;;;2089313;28;20432;-67
2021/09/18 04:12:14;;;;;;;1.60;1.50;;;14.00;99.90;;;;;;2097262;28;20123;-70
2021/09/18 04:13:15;;;;;;;2.25;1.50;;;14.00;99.90;;;;;;2097242;28;20028;-69
2021/09/18 04:14:15;;;;;;;2.78;1.30;;;14.00;99.90;;;;;;2097025;28;20012;-69
2021/09/18 04:15:16;;;;;;;1.40;1.25;;;14.00;99.90;;;;;;2097745;28;20017;-69
2021/09/18 04:16:21;;;;;;;3.10;1.70;;;14.00;99.90;;;;;;2097968;28;20371;-70
2021/09/18 04:17:22;;;;;;;3.70;1.60;;;14.00;99.90;;;;;;2097561;28;20027;-69
2021/09/18 04:18:22;;;;;;;2.17;1.40;;;14.00;99.90;;;;;;2096440;28;20054;-69
2021/09/18 04:19:23;;;;;;;1.75;1.60;;;14.00;99.90;;;;;;2096924;28;20062;-69
2021/09/18 04:20:24;;;;;;;2.72;1.60;;;14.00;99.90;;;;;;2096536;28;20756;-69
2021/09/18 04:21:25;;;;;;;2.83;1.48;;;14.00;99.90;;;;;;2096777;28;20031;-67
2021/09/18 04:22:26;;;;;;;1.35;1.25;;;14.00;99.90;;;;;;2088324;28;20091;-69
2021/09/18 04:23:26;;;;;;;2.22;1.30;;;14.00;99.90;;;;;;2096659;28;20055;-68
2021/09/18 04:24:27;;;;;;;1.50;1.40;;;14.00;99.90;;;;;;2097337;28;20029;-69
2021/09/18 04:25:28;;;;;;;1.88;1.42;;;14.00;99.90;;;;;;2097238;28;20024;-69
2021/09/18 04:26:29;;;;;;;2.78;1.70;;;14.00;99.90;;;;;;2096687;28;20021;-67
2021/09/18 04:27:29;;;;;;;4.38;1.42;;;14.00;99.90;;;;;;2096668;28;20064;-67
2021/09/18 04:28:30;;;;;;;1.85;1.60;;;14.00;99.90;;;;;;2097158;28;20024;-69
2021/09/18 04:29:31;;;;;;;1.58;1.48;;;14.00;99.90;;;;;;2096555;28;20016;-68
2021/09/18 04:30:31;;;;;;;1.85;1.30;;;14.00;99.90;;;;;;2095822;28;20035;-67
2021/09/18 04:31:32;;;;;;;1.65;1.45;;;14.00;99.90;;;;;;2097155;28;20553;-67
2021/09/18 04:32:33;;;;;;;1.40;1.30;;;14.00;99.90;;;;;;2097193;28;20095;-68
2021/09/18 04:33:34;;;;;;;2.20;1.42;;;14.00;99.90;;;;;;2097426;28;20020;-67
2021/09/18 04:34:34;;;;;;;1.65;1.48;;;14.00;99.90;;;;;;2097361;28;20248;-67
2021/09/18 04:35:36;;;;;;;1.70;1.60;;;14.00;99.90;;;;;;2096836;28;20033;-67
2021/09/18 04:36:37;;;;;;;2.20;1.70;;;14.00;99.90;;;;;;2088689;28;20679;-67
2021/09/18 04:37:38;;;;;;;3.53;1.40;;;14.00;99.90;;;;;;2088500;28;20039;-69
2021/09/18 04:38:38;;;;;;;3.60;1.85;;;14.00;99.90;;;;;;2088419;28;20040;-67
2021/09/18 04:39:39;;;;;;;3.10;1.75;;;14.00;99.90;;;;;;2096804;28;20500;-67
2021/09/18 04:40:39;;;;;;;3.67;1.77;;;14.00;99.90;;;;;;2097058;28;20028;-68
2021/09/18 04:41:40;;;;;;;5.78;2.00;;;14.00;99.90;;;;;;2097246;28;20055;-69
2021/09/18 04:42:41;;;;;;;4.55;1.80;;;14.00;99.90;;;;;;2096370;28;20576;-68
2021/09/18 04:43:42;;;;;;;1.60;1.50;;;14.00;99.90;;;;;;2088319;28;20029;-67
2021/09/18 04:44:43;;;;;;;2.05;1.38;;;14.00;99.90;;;;;;2088584;28;20021;-69
2021/09/18 04:45:44;;;;;;;1.50;1.40;;;14.00;99.90;;;;;;2088435;28;20029;-69
2021/09/18 04:46:44;;;;;;;2.67;1.70;;;14.00;99.90;;;;;;2096694;28;20043;-70
2021/09/18 04:47:45;;;;;;;3.08;1.70;;;14.00;99.90;;;;;;2097506;28;20481;-67
2021/09/18 04:48:46;;;;;;;1.98;1.55;;;14.00;99.90;;;;;;2105074;28;20036;-68
2021/09/18 04:49:46;;;;;;;2.53;1.45;;;13.90;99.90;;;;;;2104306;28;20020;-68
2021/09/18 04:50:47;;;;;;;3.95;1.70;;;13.90;99.90;;;;;;2097209;28;20463;-68
2021/09/18 04:51:48;;;;;;;2.88;1.52;;;13.90;99.90;;;;;;2097260;28;20044;-68
2021/09/18 04:52:48;;;;;;;2.70;1.80;;;13.90;99.90;;;;;;2096504;28;20028;-68
2021/09/18 04:53:49;;;;;;;2.10;1.70;;;13.90;99.90;;;;;;2096680;28;20438;-69
2021/09/18 04:54:53;;;;;;;2.15;1.65;;;13.90;99.90;;;;;;2096344;28;20447;-68
2021/09/18 04:55:54;;;;;;;2.72;1.70;;;13.90;99.90;;;;;;2096609;28;20572;-68
2021/09/18 04:56:54;;;;;;;3.08;1.55;;;13.90;99.90;;;;;;2096665;28;20025;-68
2021/09/18 04:57:55;;;;;;;2.13;1.60;;;13.90;99.90;;;;;;2096781;28;20040;-68
2021/09/18 04:58:55;;;;;;;1.70;1.60;;;13.90;99.90;;;;;;2096934;28;20024;-68
2021/09/18 04:59:56;;;;;;;1.73;1.60;;;13.90;99.90;;;;;;2097243;28;20056;-68
2021/09/18 05:00:57;;;;;;;2.75;1.63;;;13.90;99.90;;;;;;2096902;28;20090;-69
2021/09/18 05:01:57;;;;;;;4.82;1.95;;;13.90;99.90;;;;;;2096989;28;20574;-69
2021/09/18 05:02:58;;;;;;;2.63;1.90;;;13.90;99.90;;;;;;2097620;28;20059;-69
2021/09/18 05:03:59;;;;;;;2.72;1.75;;;13.90;99.90;;;;;;2096997;28;20125;-69
2021/09/18 05:04:59;;;;;;;3.53;1.75;;;13.90;99.90;;;;;;2097099;28;20063;-68
2021/09/18 05:06:00;;;;;;;2.75;1.52;;;13.90;99.90;;;;;;2097865;28;20157;-69
2021/09/18 05:07:00;;;;;;;3.55;1.63;;;13.90;99.90;;;;;;2099126;28;20058;-70
2021/09/18 05:08:01;;;;;;;3.08;1.60;;;13.90;99.90;;;;;;2099207;28;20029;-71
2021/09/18 05:09:03;;;;;;;3.80;1.77;;;13.90;99.90;;;;;;2098727;28;20032;-71
2021/09/18 05:10:04;;;;;;;2.75;1.70;;;13.90;99.90;;;;;;2096915;28;20081;-69
2021/09/18 05:11:05;;;;;;;2.50;1.73;;;13.90;99.90;;;;;;2096863;28;20027;-71
2021/09/18 05:12:06;;;;;;;3.80;1.63;;;13.90;99.90;;;;;;2096932;28;20035;-71
2021/09/18 05:13:06;;;;;;;2.38;1.50;;;13.90;99.90;;;;;;2097555;28;20032;-69
2021/09/18 05:14:07;;;;;;;3.72;1.52;;;13.90;99.90;;;;;;2097905;28;20166;-70
2021/09/18 05:15:09;;;;;;;5.55;1.80;;;13.90;99.90;;;;;;2097206;28;20042;-69
2021/09/18 05:16:09;;;;;;;3.60;1.80;;;13.90;99.90;;;;;;2096781;28;20025;-70
2021/09/18 05:17:10;;;;;;;3.80;2.30;;;14.00;99.90;;;;;;2097382;28;20504;-70
2021/09/18 05:18:10;;;;;;;4.38;1.90;;;13.90;99.90;;;;;;2097289;28;20119;-69